Time;durP1;ratioP1;P1;durP2;ratioP2;P2;SDS_P1;SDS_P2;PMS_P1;PMS_P2;Temp;Humidity;BMP_temperature;BMP_pressure;BME280_temperature;BME280_humidity;BME280_pressure;Samples;Min_cycle;Max_cycle;Signal;HPM_P1;HPM_P2
2022/04/22 04:25:16;;;;;;;55.97;21.70;;;;;;;6.72;93.86;99014.34;5128502;27;20043;-75
2022/04/22 04:27:42;;;;;;;52.10;23.33;;;;;;;6.73;94.13;99017.81;5128341;28;20039;-76
2022/04/22 04:30:08;;;;;;;50.13;21.85;;;;;;;6.75;93.90;99024.56;5129656;27;20124;-76
2022/04/22 04:32:34;;;;;;;56.75;23.70;;;;;;;6.73;94.13;99023.09;5129417;27;20037;-76
2022/04/22 04:35:05;;;;;;;52.58;21.48;;;;;;;6.77;93.09;99033.13;5151914;22;20401;-76
2022/04/22 04:37:32;;;;;;;53.80;24.08;;;;;;;6.68;93.33;99017.53;5068884;28;20489;-77
2022/04/22 04:39:58;;;;;;;51.05;24.38;;;;;;;6.62;92.98;99005.81;5036167;28;20051;-76
2022/04/22 04:42:25;;;;;;;50.42;23.80;;;;;;;6.78;93.08;99048.03;5017772;28;20037;-76
2022/04/22 04:44:51;;;;;;;52.67;22.95;;;;;;;6.78;93.14;99042.75;5068883;28;20032;-76
2022/04/22 04:47:17;;;;;;;51.92;23.55;;;;;;;6.78;93.42;99048.03;5050936;28;20036;-75
2022/04/22 04:49:46;;;;;;;54.92;22.23;;;;;;;6.75;93.86;99044.91;5051034;28;20551;-76
2022/04/22 04:52:12;;;;;;;46.78;21.40;;;;;;;6.77;93.47;99041.06;5050833;28;20044;-76
2022/04/22 04:54:38;;;;;;;47.97;21.67;;;;;;;6.72;94.08;99043.47;5069001;28;20037;-76
2022/04/22 04:57:04;;;;;;;44.67;21.95;;;;;;;6.71;93.83;99043.59;5068372;28;20496;-76
2022/04/22 04:59:29;;;;;;;48.08;21.92;;;;;;;6.63;94.69;99036.56;5033801;28;20049;-77
2022/04/22 05:01:55;;;;;;;48.40;22.27;;;;;;;6.74;94.07;99045.91;5050142;28;20555;-76
2022/04/22 05:04:20;;;;;;;45.80;22.58;;;;;;;6.77;94.03;99045.56;5068266;28;20041;-76
2022/04/22 05:06:46;;;;;;;48.67;22.42;;;;;;;6.70;94.63;99047.25;5068274;28;20045;-76
2022/04/22 05:09:12;;;;;;;49.25;22.83;;;;;;;6.79;93.93;99048.88;5068117;28;20170;-76
2022/04/22 05:11:37;;;;;;;48.70;22.27;;;;;;;6.74;93.98;99043.28;5067771;28;20040;-76
2022/04/22 05:14:04;;;;;;;53.22;22.60;;;;;;;6.87;93.37;99051.44;5068126;28;20497;-76
2022/04/22 05:16:29;;;;;;;48.67;22.23;;;;;;;6.85;93.78;99042.03;5050672;28;20029;-76
2022/04/22 05:18:55;;;;;;;44.85;21.50;;;;;;;6.86;93.79;99046.31;5069170;28;20044;-76
2022/04/22 05:21:20;;;;;;;50.90;21.50;;;;;;;6.86;93.89;99054.28;5068310;28;20486;-76
2022/04/22 05:23:46;;;;;;;51.88;22.73;;;;;;;6.87;93.92;99058.56;5067473;28;20044;-77
2022/04/22 05:26:12;;;;;;;50.88;22.30;;;;;;;6.88;93.86;99050.44;5049865;28;20094;-76
2022/04/22 05:28:38;;;;;;;47.97;22.88;;;;;;;6.88;94.08;99052.25;5067716;28;20064;-76
2022/04/22 05:33:48;;;;;;;51.65;23.40;;;;;;;6.97;93.46;99046.69;5039639;28;20450;-76
2022/04/22 05:36:13;;;;;;;52.38;23.83;;;;;;;7.01;93.74;99037.41;5054287;28;20124;-72
2022/04/22 05:38:39;;;;;;;52.60;22.52;;;;;;;7.11;93.47;99036.31;5054039;28;20041;-72
2022/04/22 05:41:05;;;;;;;52.45;22.48;;;;;;;7.24;92.99;99040.00;5054096;28;20036;-72
2022/04/22 05:43:30;;;;;;;49.53;23.55;;;;;;;7.38;91.96;99048.16;5053717;28;20037;-72
2022/04/22 05:45:56;;;;;;;50.65;22.45;;;;;;;7.46;91.19;99040.94;5035824;28;20048;-72
2022/04/22 05:48:21;;;;;;;54.10;25.52;;;;;;;7.58;90.57;99034.19;5053866;28;20040;-72
2022/04/22 05:50:47;;;;;;;57.42;23.73;;;;;;;7.60;90.10;99031.34;5053760;28;20118;-72
2022/04/22 05:53:13;;;;;;;47.08;22.33;;;;;;;7.72;89.58;99044.97;5053444;28;20041;-72
2022/04/22 05:55:38;;;;;;;47.38;22.90;;;;;;;7.81;89.28;99042.00;5053914;28;20118;-72
2022/04/22 05:58:04;;;;;;;43.85;21.88;;;;;;;7.91;88.69;99040.91;5053768;28;20068;-72
2022/04/22 06:00:31;;;;;;;50.13;23.60;;;;;;;7.94;88.09;99037.88;5053673;28;20037;-72
2022/04/22 06:02:58;;;;;;;46.97;23.33;;;;;;;8.00;87.23;99027.34;5053460;28;20037;-71
2022/04/22 06:05:24;;;;;;;48.03;22.33;;;;;;;8.29;86.23;99036.25;5053688;28;20070;-70
2022/04/22 06:10:31;;;;;;;49.95;23.10;;;;;;;8.56;84.39;99026.75;5053464;28;20120;-70
2022/04/22 06:10:38;;;;;;;46.47;22.15;;;;;;;8.79;83.00;99027.38;5053294;28;20033;-70
2022/04/22 06:13:04;;;;;;;42.28;20.17;;;;;;;8.70;83.76;99028.53;5035094;28;20574;-70
2022/04/22 06:15:30;;;;;;;44.53;21.35;;;;;;;8.81;83.20;99035.16;5035993;28;20037;-70
2022/04/22 06:17:57;;;;;;;42.65;20.63;;;;;;;8.80;83.17;99026.38;5053903;28;20041;-70
2022/04/22 06:20:23;;;;;;;42.60;19.47;;;;;;;8.82;82.44;99031.50;5053886;28;20175;-70
2022/04/22 06:22:48;;;;;;;46.30;21.67;;;;;;;8.85;82.12;99025.78;5053293;28;20127;-70
2022/04/22 06:25:14;;;;;;;44.00;21.08;;;;;;;8.87;82.52;99023.78;5053441;28;20048;-70
2022/04/22 06:27:42;;;;;;;47.22;23.15;;;;;;;8.93;81.35;99025.66;5053305;28;20045;-70
2022/04/22 06:30:15;;;;;;;49.75;22.65;;;;;;;8.92;81.90;99016.84;5053240;28;20162;-70
2022/04/22 06:32:49;;;;;;;41.90;21.00;;;;;;;8.93;81.71;99007.06;5052928;28;20068;-70
2022/04/22 06:35:20;;;;;;;43.78;21.27;;;;;;;8.93;81.80;99021.19;5052762;28;20146;-70
2022/04/22 06:37:49;;;;;;;39.83;20.92;;;;;;;9.08;80.98;99012.28;5035077;28;20033;-70
2022/04/22 06:45:48;;;;;;;43.45;20.73;;;;;;;9.15;81.23;99007.84;5051845;28;20045;-71
2022/04/22 06:48:16;;;;;;;42.40;20.23;;;;;;;9.31;79.81;99004.06;5052678;28;20112;-70
2022/04/22 06:50:50;;;;;;;37.63;20.95;;;;;;;9.36;79.33;99010.44;5052596;28;20052;-69
2022/04/22 06:53:17;;;;;;;41.30;21.02;;;;;;;9.35;78.94;99014.09;5034440;28;20044;-69
2022/04/22 06:55:43;;;;;;;40.75;20.67;;;;;;;9.43;78.72;99013.94;5052678;28;20033;-69
2022/04/22 06:58:12;;;;;;;43.13;21.17;;;;;;;9.50;78.65;99012.16;5034764;28;20470;-69
2022/04/22 07:00:39;;;;;;;43.35;21.10;;;;;;;9.30;78.92;99013.88;5052657;28;20080;-70
2022/04/22 07:03:07;;;;;;;40.25;21.23;;;;;;;9.52;78.11;99007.47;5052169;28;20055;-70
2022/04/22 07:05:34;;;;;;;42.05;21.25;;;;;;;9.58;77.92;99007.69;5034852;28;20032;-70
2022/04/22 07:08:05;;;;;;;38.17;19.13;;;;;;;9.62;77.07;99006.28;5034446;28;20094;-70
2022/04/22 07:10:31;;;;;;;39.70;19.95;;;;;;;9.73;76.83;99001.22;5052321;28;20029;-70
2022/04/22 07:12:58;;;;;;;42.50;21.98;;;;;;;9.88;76.61;99000.25;5034184;28;20033;-70
2022/04/22 07:15:24;;;;;;;41.10;19.60;;;;;;;10.08;75.37;99003.81;5052162;28;20131;-70
2022/04/22 07:17:50;;;;;;;39.28;19.45;;;;;;;10.13;75.72;99003.22;5052275;28;20040;-70
2022/04/22 07:20:16;;;;;;;43.85;21.02;;;;;;;10.23;74.98;98993.84;5017955;28;20041;-70
2022/04/22 07:22:42;;;;;;;41.67;20.10;;;;;;;10.25;74.86;99002.47;5051821;28;20429;-71
2022/04/22 07:25:12;;;;;;;41.25;21.27;;;;;;;10.16;74.49;98998.31;5052145;28;20075;-70
2022/04/22 07:27:41;;;;;;;44.88;21.17;;;;;;;10.20;75.10;98998.72;5052198;28;20036;-70
2022/04/22 07:30:09;;;;;;;44.35;22.50;;;;;;;10.29;73.79;98992.22;5052311;28;20116;-69
2022/04/22 07:32:38;;;;;;;40.42;20.05;;;;;;;10.14;74.11;98994.22;5051765;28;20033;-70
2022/04/22 07:35:05;;;;;;;38.80;20.25;;;;;;;10.24;73.73;98984.03;5052151;28;20041;-70
2022/04/22 07:37:34;;;;;;;40.57;19.67;;;;;;;10.38;73.37;98984.88;5052330;28;20063;-70
2022/04/22 07:40:00;;;;;;;38.40;21.35;;;;;;;10.42;72.86;98984.25;5052193;28;20111;-70
2022/04/22 07:42:28;;;;;;;37.45;20.38;;;;;;;10.48;72.11;98979.97;5051918;28;20056;-70
2022/04/22 07:47:42;;;;;;;;;;;;;;;10.47;71.83;98979.16;5052644;28;20486;-70
2022/04/22 07:50:08;;;;;;;35.67;18.80;;;;;;;10.77;71.67;98978.78;5051689;28;19935;-70
2022/04/22 07:52:36;;;;;;;35.33;19.38;;;;;;;11.01;71.34;98975.47;5051534;28;20041;-70
2022/04/22 07:55:02;;;;;;;;;;;;;;;11.27;69.62;98982.59;5051615;28;20044;-71
2022/04/22 07:57:28;;;;;;;33.17;19.55;;;;;;;11.28;68.76;98970.09;5051488;28;19916;-71
2022/04/22 07:59:54;;;;;;;37.80;19.42;;;;;;;11.22;68.86;98976.28;5051540;28;20040;-70
2022/04/22 08:02:21;;;;;;;34.15;18.17;;;;;;;11.54;67.78;98978.03;5051242;28;20041;-71
2022/04/22 08:04:47;;;;;;;39.03;20.20;;;;;;;11.65;66.73;98979.22;5051430;28;20040;-71
2022/04/22 08:07:13;;;;;;;35.63;19.88;;;;;;;11.66;66.72;98973.66;5033695;28;20033;-70
2022/04/22 08:09:39;;;;;;;34.83;18.83;;;;;;;11.46;66.83;98966.75;5051398;28;20119;-70
2022/04/22 08:12:07;;;;;;;36.97;19.38;;;;;;;11.59;66.71;98978.22;5051792;28;20116;-71
2022/04/22 08:14:34;;;;;;;36.67;20.38;;;;;;;11.52;66.27;98963.25;5051686;28;20044;-71
2022/04/22 08:17:00;;;;;;;37.20;21.20;;;;;;;11.50;66.39;98976.81;5051571;28;20083;-70
2022/04/22 08:19:26;;;;;;;40.67;20.13;;;;;;;11.41;66.57;98970.91;5051357;28;20094;-71
2022/04/22 08:21:52;;;;;;;40.00;20.95;;;;;;;11.58;66.64;98971.25;5051013;28;20025;-70
2022/04/22 08:24:18;;;;;;;33.33;18.75;;;;;;;11.64;66.64;98962.41;5051090;28;20033;-70
2022/04/22 08:26:44;;;;;;;37.95;18.73;;;;;;;11.81;65.36;98977.97;5033360;28;20040;-71
2022/04/22 08:29:10;;;;;;;34.13;19.10;;;;;;;11.71;65.22;98970.38;5051159;28;20061;-72
2022/04/22 08:31:36;;;;;;;33.97;19.85;;;;;;;11.75;64.69;98965.44;5033267;28;20105;-70
2022/04/22 08:34:02;;;;;;;36.72;20.17;;;;;;;11.67;65.08;98964.66;5032942;28;20557;-70
2022/04/22 08:36:29;;;;;;;35.95;18.13;;;;;;;11.67;65.88;98970.00;5050914;28;20031;-71
2022/04/22 08:38:57;;;;;;;34.63;19.38;;;;;;;11.87;64.31;98958.44;5051074;28;20051;-70
2022/04/22 08:41:22;;;;;;;35.63;19.10;;;;;;;11.95;64.66;98953.69;5050832;28;20060;-71
2022/04/22 08:43:56;;;;;;;34.53;18.25;;;;;;;12.16;63.45;98947.19;5050898;28;20057;-71
2022/04/22 08:51:51;;;;;;;37.10;19.48;;;;;;;12.66;61.75;98941.09;5050676;28;20037;-70
2022/04/22 08:54:20;;;;;;;34.17;18.50;;;;;;;12.67;62.26;98945.41;5033123;28;20111;-71
2022/04/22 08:56:49;;;;;;;33.58;16.90;;;;;;;13.10;60.74;98937.38;5016842;28;20036;-70
2022/04/22 08:59:16;;;;;;;33.20;18.02;;;;;;;13.26;59.92;98947.53;5052441;28;20506;-70
2022/04/22 09:01:42;;;;;;;33.95;17.75;;;;;;;13.01;60.95;98941.38;5050790;28;20033;-74
2022/04/22 09:04:08;;;;;;;27.98;15.98;;;;;;;13.36;60.25;98940.84;5050931;28;20470;-70
2022/04/22 09:06:35;;;;;;;31.55;17.67;;;;;;;13.45;59.25;98934.19;5050909;28;20044;-71
2022/04/22 09:09:04;;;;;;;35.42;17.60;;;;;;;13.53;58.24;98939.22;5054240;28;20037;-71
2022/04/22 09:11:30;;;;;;;30.25;17.45;;;;;;;13.46;59.50;98939.31;5054667;28;20036;-71
2022/04/22 09:14:00;;;;;;;34.38;18.42;;;;;;;13.65;58.82;98926.72;5054719;28;20148;-72
2022/04/22 09:16:27;;;;;;;30.40;17.40;;;;;;;13.83;59.05;98925.91;5054667;28;20127;-72
2022/04/22 09:19:00;;;;;;;31.50;16.77;;;;;;;14.33;56.75;98921.03;5054830;28;20033;-72
2022/04/22 09:21:27;;;;;;;31.85;18.60;;;;;;;14.48;55.62;98915.28;5054439;28;20037;-71
2022/04/22 09:23:53;;;;;;;30.10;17.33;;;;;;;14.09;56.02;98914.81;5054540;28;20443;-71
2022/04/22 09:26:26;;;;;;;29.20;16.95;;;;;;;14.41;55.84;98925.28;5036881;28;20456;-71
2022/04/22 09:28:59;;;;;;;32.28;17.77;;;;;;;14.51;55.57;98914.00;5054607;28;20040;-71
2022/04/22 09:31:26;;;;;;;31.02;17.83;;;;;;;14.72;54.73;98910.75;5036781;28;20029;-72
2022/04/22 09:33:52;;;;;;;34.70;16.77;;;;;;;15.04;52.86;98908.53;5054365;28;20041;-71
2022/04/22 09:44:57;;;;;;;32.10;16.83;;;;;;;16.04;50.32;98893.13;5039247;28;20037;-70
2022/04/22 09:47:28;;;;;;;29.50;16.67;;;;;;;15.81;51.13;98892.19;5054123;28;20178;-72
2022/04/22 09:49:54;;;;;;;30.45;16.80;;;;;;;16.06;49.71;98877.59;5053914;28;20028;-71
2022/04/22 09:52:27;;;;;;;28.02;16.80;;;;;;;16.55;48.89;98889.44;5053600;28;20099;-72
2022/04/22 09:54:59;;;;;;;29.17;16.05;;;;;;;16.58;48.33;98880.06;5054004;28;20071;-70
2022/04/22 09:57:25;;;;;;;26.85;16.15;;;;;;;16.84;47.86;98879.44;5036268;28;20033;-69
2022/04/22 09:59:52;;;;;;;28.53;16.77;;;;;;;17.03;47.75;98870.03;5036312;28;20550;-70
2022/04/22 10:02:25;;;;;;;29.73;17.23;;;;;;;17.43;46.61;98868.91;5035872;28;20056;-72
2022/04/22 10:04:54;;;;;;;26.38;16.13;;;;;;;17.71;45.66;98869.75;5054170;28;20075;-72
2022/04/22 10:07:25;;;;;;;27.67;16.55;;;;;;;18.22;44.44;98854.13;5036479;28;20091;-71
2022/04/22 10:09:54;;;;;;;28.23;17.05;;;;;;;18.53;44.17;98858.69;5036163;28;20471;-71
2022/04/22 10:12:23;;;;;;;25.95;15.00;;;;;;;19.00;44.58;98859.84;5035474;28;20056;-71
2022/04/22 10:14:53;;;;;;;28.30;16.25;;;;;;;18.23;44.26;98858.44;5054083;28;20412;-71
2022/04/22 10:17:20;;;;;;;28.33;17.40;;;;;;;18.92;43.38;98858.44;5053595;28;20486;-70
2022/04/22 10:19:46;;;;;;;29.07;17.20;;;;;;;18.63;42.69;98842.56;5053837;28;20036;-71
2022/04/22 10:22:12;;;;;;;23.80;15.85;;;;;;;18.96;42.03;98843.34;5053431;28;20287;-71
2022/04/22 10:24:40;;;;;;;26.38;16.10;;;;;;;19.61;41.78;98847.41;5035665;28;20028;-71
2022/04/22 10:27:07;;;;;;;28.05;15.25;;;;;;;19.78;41.22;98847.22;5035451;28;20045;-71
2022/04/22 10:29:35;;;;;;;27.25;15.57;;;;;;;20.16;39.11;98832.41;5019185;28;20041;-70
2022/04/22 10:32:04;;;;;;;28.20;16.67;;;;;;;19.92;39.46;98831.28;5053138;28;20376;-70
2022/04/22 10:34:41;;;;;;;28.35;17.35;;;;;;;20.18;40.49;98832.94;5054070;28;20087;-70
2022/04/22 10:37:27;;;;;;;26.77;14.85;;;;;;;20.15;40.84;98825.38;5072146;22;20044;-71
2022/04/22 10:39:55;;;;;;;24.98;15.27;;;;;;;20.73;38.86;98828.56;5053122;28;20044;-71
2022/04/22 10:42:33;;;;;;;25.88;15.75;;;;;;;19.91;40.43;98830.47;5052676;28;20037;-71
2022/04/22 10:47:49;;;;;;;24.52;15.50;;;;;;;19.92;39.97;98826.69;5032983;28;20030;-70
2022/04/22 10:50:54;;;;;;;24.15;15.38;;;;;;;20.31;38.51;98821.56;5032882;28;20037;-71
2022/04/22 10:53:25;;;;;;;27.15;15.32;;;;;;;20.50;38.67;98810.25;5029468;28;20089;-71
2022/04/22 10:55:51;;;;;;;28.80;16.08;;;;;;;19.86;39.55;98814.25;5031621;28;20069;-72
2022/04/22 10:58:16;;;;;;;25.30;15.20;;;;;;;19.31;40.91;98820.31;5032734;28;20061;-71
2022/04/22 11:00:44;;;;;;;27.20;15.02;;;;;;;20.10;39.79;98814.56;5032738;28;20502;-71
2022/04/22 11:03:13;;;;;;;27.90;15.20;;;;;;;20.08;41.31;98808.59;5047715;28;20039;-71
2022/04/22 11:05:45;;;;;;;27.20;15.88;;;;;;;20.77;38.52;98804.50;5032576;28;20116;-71
2022/04/22 11:08:25;;;;;;;26.25;16.23;;;;;;;20.08;39.09;98803.19;5047945;28;20045;-71
2022/04/22 11:14:47;;;;;;;23.95;15.18;;;;;;;20.52;37.95;98800.75;5032450;28;20035;-71
2022/04/22 11:17:35;;;;;;;26.55;15.57;;;;;;;21.11;36.93;98786.50;5032369;28;20112;-72
2022/04/22 11:20:01;;;;;;;28.02;15.52;;;;;;;21.16;37.03;98777.56;5047747;28;20393;-71
2022/04/22 11:22:58;;;;;;;27.75;16.38;;;;;;;21.28;36.64;98779.94;5032085;28;20112;-70
2022/04/22 11:25:29;;;;;;;26.83;15.77;;;;;;;21.46;36.37;98782.06;5030835;28;20179;-70
2022/04/22 11:27:56;;;;;;;24.20;15.43;;;;;;;21.73;36.12;98781.63;5047591;28;20041;-71
2022/04/22 11:30:22;;;;;;;23.57;13.60;;;;;;;22.22;35.27;98778.00;5031691;28;20042;-70
2022/04/22 11:32:56;;;;;;;25.25;14.65;;;;;;;21.94;36.10;98783.09;5047275;28;20033;-72
2022/04/22 11:35:25;;;;;;;23.77;15.68;;;;;;;22.71;34.06;98771.56;5033751;28;20089;-73
2022/04/22 11:38:06;;;;;;;20.55;13.15;;;;;;;23.21;34.01;98789.19;5051994;28;20482;-72
2022/04/22 11:40:39;;;;;;;21.80;13.48;;;;;;;22.79;34.67;98784.50;5051910;28;20036;-71
2022/04/22 11:43:12;;;;;;;23.73;14.07;;;;;;;23.15;33.08;98775.97;5051926;28;20025;-71
2022/04/22 11:45:42;;;;;;;25.45;14.48;;;;;;;23.33;32.77;98780.59;5050585;28;20037;-71
2022/04/22 11:48:10;;;;;;;22.42;13.48;;;;;;;23.83;31.92;98770.94;5051842;28;20035;-71
2022/04/22 11:50:39;;;;;;;26.15;15.05;;;;;;;23.71;32.18;98775.22;5051878;28;20025;-70
2022/04/22 11:53:22;;;;;;;25.13;13.10;;;;;;;24.24;32.29;98767.53;5051507;28;20036;-73
2022/04/22 11:55:49;;;;;;;24.23;14.52;;;;;;;24.21;31.59;98762.72;5051798;28;20121;-72
2022/04/22 11:58:17;;;;;;;22.42;15.57;;;;;;;23.40;32.45;98769.38;5051689;28;20048;-71
2022/04/22 12:06:14;;;;;;;22.95;13.60;;;;;;;23.18;32.70;98768.03;5051609;28;20037;-72
2022/04/22 12:09:08;;;;;;;27.83;14.57;;;;;;;23.09;33.14;98760.84;5051656;28;20041;-71
2022/04/22 12:11:42;;;;;;;25.27;16.10;;;;;;;22.22;33.92;98756.31;5051347;28;20061;-71
2022/04/22 12:14:09;;;;;;;23.40;15.02;;;;;;;22.83;33.64;98771.97;5051450;28;20115;-72
2022/04/22 12:16:35;;;;;;;20.20;12.05;;;;;;;23.05;36.36;98754.38;5051381;28;20171;-72
2022/04/22 12:19:00;;;;;;;21.67;13.45;;;;;;;23.71;32.71;98753.47;5033828;28;20123;-73
2022/04/22 12:21:32;;;;;;;20.48;13.15;;;;;;;23.81;31.51;98751.41;5051264;28;20065;-73
2022/04/22 12:24:02;;;;;;;22.17;13.75;;;;;;;24.57;30.08;98748.47;5051342;28;20041;-73
2022/04/22 12:26:34;;;;;;;21.85;13.75;;;;;;;24.71;29.83;98749.28;5051442;28;20037;-73
2022/04/22 12:29:02;;;;;;;21.70;13.60;;;;;;;24.72;30.64;98752.84;5051514;28;20102;-72
2022/04/22 12:31:31;;;;;;;21.30;14.82;;;;;;;23.91;30.98;98750.44;5051296;28;20111;-72
2022/04/22 12:34:05;;;;;;;23.95;12.85;;;;;;;24.44;30.87;98749.28;5051362;28;20152;-72
2022/04/22 12:36:34;;;;;;;23.08;14.05;;;;;;;24.91;29.75;98742.66;5051324;28;20037;-73
2022/04/22 12:39:00;;;;;;;20.35;12.63;;;;;;;25.37;28.80;98736.25;5034043;28;20040;-72
2022/04/22 12:41:26;;;;;;;19.75;12.20;;;;;;;25.25;29.82;98738.72;5051437;28;20037;-73
2022/04/22 12:43:53;;;;;;;18.33;12.02;;;;;;;25.91;28.84;98738.00;5054148;28;20111;-73
2022/04/22 12:52:12;;;;;;;19.92;12.85;;;;;;;24.43;30.83;98732.16;5055319;28;20037;-77
2022/04/22 12:54:41;;;;;;;22.05;13.60;;;;;;;24.93;30.05;98740.44;5037731;28;20044;-78
2022/04/22 12:57:10;;;;;;;21.55;13.43;;;;;;;24.18;30.31;98735.28;5055914;28;20405;-78
2022/04/22 12:59:44;;;;;;;21.63;14.63;;;;;;;24.56;30.33;98736.00;5056616;28;20037;-77
2022/04/22 13:02:13;;;;;;;22.15;13.57;;;;;;;25.40;29.20;98727.47;5039342;28;20037;-77
2022/04/22 13:04:55;;;;;;;21.85;15.00;;;;;;;25.12;29.18;98735.69;5056271;28;20482;-78
2022/04/22 13:07:22;;;;;;;17.55;12.43;;;;;;;25.31;29.49;98729.31;5049048;28;20044;-77
2022/04/22 13:09:48;;;;;;;19.63;12.75;;;;;;;24.91;31.01;98729.06;5032029;28;20044;-77
2022/04/22 13:12:14;;;;;;;20.10;11.97;;;;;;;25.29;29.79;98732.31;5037216;28;20037;-76
2022/04/22 13:14:41;;;;;;;19.17;12.15;;;;;;;24.49;30.26;98717.34;5054999;28;20650;-76
2022/04/22 13:17:16;;;;;;;18.38;12.63;;;;;;;25.05;29.75;98715.44;5037103;28;20036;-75
2022/04/22 13:19:42;;;;;;;17.88;12.05;;;;;;;26.09;28.05;98719.03;5054762;28;20155;-77
2022/04/22 13:22:07;;;;;;;17.05;12.20;;;;;;;26.17;28.48;98721.78;5036709;28;20087;-76
2022/04/22 13:24:33;;;;;;;20.33;12.80;;;;;;;26.56;27.29;98720.25;5058916;28;20033;-76
2022/04/22 13:26:59;;;;;;;17.55;12.52;;;;;;;26.72;27.10;98717.88;5057032;28;20040;-77
2022/04/22 13:29:24;;;;;;;18.40;11.93;;;;;;;26.96;26.42;98712.00;5054712;28;20120;-76
2022/04/22 13:31:50;;;;;;;16.58;12.18;;;;;;;25.60;29.13;98721.53;5036000;28;20068;-76
2022/04/22 13:34:15;;;;;;;16.05;11.38;;;;;;;26.64;27.81;98714.00;5054512;28;20069;-77
2022/04/22 13:36:43;;;;;;;20.85;12.95;;;;;;;26.44;27.11;98717.31;5054155;28;20045;-76
2022/04/22 13:39:08;;;;;;;18.55;12.77;;;;;;;26.29;27.73;98717.69;5036506;28;20045;-76
2022/04/22 13:41:34;;;;;;;17.85;12.02;;;;;;;25.48;28.13;98709.56;5054052;28;20036;-76
2022/04/22 13:43:59;;;;;;;18.23;11.95;;;;;;;24.87;29.00;98711.69;5036076;28;20500;-76
2022/04/22 13:54:37;;;;;;;19.60;13.15;;;;;;;22.65;32.80;98713.81;5035392;28;20531;-76
2022/04/22 13:57:03;;;;;;;24.90;14.13;;;;;;;21.86;34.15;98715.13;5053688;28;20117;-76
2022/04/22 13:59:29;;;;;;;20.98;14.02;;;;;;;21.52;34.30;98702.38;5053947;28;20510;-76
2022/04/22 14:01:54;;;;;;;20.58;13.88;;;;;;;21.97;34.05;98708.50;5035399;28;20489;-76
2022/04/22 14:04:20;;;;;;;18.40;12.85;;;;;;;21.76;34.85;98710.59;5053740;28;20043;-72
2022/04/22 14:06:47;;;;;;;25.95;14.68;;;;;;;21.75;34.44;98711.69;5053504;28;20090;-71
2022/04/22 14:09:14;;;;;;;31.00;14.23;;;;;;;21.44;35.83;98702.97;5053696;28;20488;-71
2022/04/22 14:11:39;;;;;;;22.05;13.02;;;;;;;21.60;35.32;98695.56;5053340;28;20041;-71
2022/04/22 14:14:05;;;;;;;19.17;11.60;;;;;;;21.65;35.18;98698.22;5053291;28;20103;-71
2022/04/22 14:16:30;;;;;;;22.38;13.75;;;;;;;21.01;35.58;98699.97;5053537;28;20044;-71
2022/04/22 14:18:56;;;;;;;26.70;15.57;;;;;;;20.71;36.13;98700.88;5053425;28;20044;-72
2022/04/22 14:21:22;;;;;;;23.65;13.43;;;;;;;20.92;36.32;98698.91;5053306;28;20112;-70
2022/04/22 14:23:48;;;;;;;19.10;12.60;;;;;;;20.84;36.08;98702.19;5053285;28;20033;-70
2022/04/22 14:26:14;;;;;;;18.20;11.88;;;;;;;20.89;36.41;98698.66;5053468;28;20044;-71
2022/04/22 14:28:40;;;;;;;21.60;12.80;;;;;;;20.94;35.62;98699.44;5053266;28;20052;-72
2022/04/22 14:31:06;;;;;;;20.50;11.77;;;;;;;21.13;36.13;98707.75;5053151;28;20037;-72
2022/04/22 14:33:32;;;;;;;16.38;11.07;;;;;;;21.11;35.99;98693.66;5051612;28;20429;-72
2022/04/22 14:35:58;;;;;;;18.58;12.32;;;;;;;21.10;35.67;98689.34;5034967;28;20040;-72
2022/04/22 14:38:24;;;;;;;17.42;11.40;;;;;;;21.21;35.22;98693.63;5053093;28;20033;-72
2022/04/22 14:40:51;;;;;;;19.98;11.32;;;;;;;20.94;35.78;98687.81;5052892;28;20039;-72
2022/04/22 14:43:17;;;;;;;17.33;11.70;;;;;;;20.98;35.66;98705.09;5034565;28;20044;-71
2022/04/22 14:45:42;;;;;;;20.10;12.45;;;;;;;20.86;35.95;98700.84;5052727;28;20045;-71
2022/04/22 14:48:08;;;;;;;19.10;12.90;;;;;;;20.80;35.63;98701.13;5035014;28;20032;-71
2022/04/22 14:50:34;;;;;;;21.45;13.45;;;;;;;20.44;36.39;98692.31;5052806;28;20040;-72
2022/04/22 14:52:59;;;;;;;20.23;13.32;;;;;;;20.35;36.30;98696.66;5052488;28;20036;-72
2022/04/22 14:55:25;;;;;;;22.88;12.98;;;;;;;20.31;36.97;98705.31;5052782;28;20064;-71
2022/04/22 14:57:51;;;;;;;22.30;14.07;;;;;;;20.44;36.32;98689.59;5052582;28;20078;-72
2022/04/22 15:00:17;;;;;;;21.30;12.40;;;;;;;20.67;36.58;98702.56;5052655;28;20063;-72
2022/04/22 15:02:43;;;;;;;28.10;16.17;;;;;;;20.66;36.41;98698.19;5034507;28;20616;-71
2022/04/22 15:05:09;;;;;;;20.80;13.20;;;;;;;20.60;36.08;98704.72;5051641;28;20071;-71
2022/04/22 15:07:35;;;;;;;23.00;14.15;;;;;;;20.73;36.61;98695.19;5052483;28;20477;-71
2022/04/22 15:10:03;;;;;;;21.53;12.97;;;;;;;20.74;36.34;98694.94;5052426;28;20061;-71
2022/04/22 15:12:29;;;;;;;24.58;13.93;;;;;;;20.84;36.07;98696.78;5052266;28;20076;-72
2022/04/22 15:14:55;;;;;;;21.17;13.25;;;;;;;20.67;36.71;98694.44;5052506;28;20069;-72
2022/04/22 15:24:09;;;;;;;21.92;12.70;;;;;;;20.50;36.47;98693.94;5052211;28;20115;-72
2022/04/22 15:25:37;;;;;;;20.13;12.23;;;;;;;20.53;37.05;98686.06;5033914;28;20098;-71
2022/04/22 15:28:03;;;;;;;17.50;11.63;;;;;;;20.35;37.74;98681.25;5052042;28;20067;-72
2022/04/22 15:31:09;;;;;;;19.00;11.80;;;;;;;20.50;37.42;98683.94;5051601;28;20047;-72
2022/04/22 15:33:39;;;;;;;18.55;11.63;;;;;;;20.57;37.02;98686.34;4989918;28;20046;-72
2022/04/22 15:36:06;;;;;;;20.60;12.43;;;;;;;20.42;37.01;98686.38;4990050;28;20042;-72
2022/04/22 15:38:36;;;;;;;18.73;11.35;;;;;;;20.42;37.51;98686.38;5021045;28;20037;-72
2022/04/22 15:41:15;;;;;;;21.00;12.38;;;;;;;20.38;36.91;98680.69;5051638;28;20574;-72
2022/04/22 15:43:42;;;;;;;21.73;12.20;;;;;;;20.21;37.24;98686.44;5051580;28;20043;-71
2022/04/22 15:46:08;;;;;;;;;;;;;;;20.26;36.70;98682.88;5052003;28;20036;-72
2022/04/22 15:48:34;;;;;;;22.42;12.93;;;;;;;20.21;36.85;98683.72;5051766;28;20290;-71
2022/04/22 15:51:04;;;;;;;20.23;11.93;;;;;;;20.21;37.07;98689.13;5051644;28;20037;-72
2022/04/22 15:53:31;;;;;;;22.15;11.82;;;;;;;20.12;37.18;98682.63;5033783;28;20049;-72
2022/04/22 15:55:57;;;;;;;20.90;13.63;;;;;;;19.71;36.96;98679.19;5051448;28;20124;-72
2022/04/22 15:58:23;;;;;;;18.52;11.82;;;;;;;19.87;37.52;98680.78;5051800;28;20040;-72
2022/04/22 16:00:49;;;;;;;21.90;12.32;;;;;;;19.87;37.22;98675.38;5051542;28;20056;-72
2022/04/22 16:03:14;;;;;;;16.65;10.77;;;;;;;19.75;37.99;98680.25;5051207;28;20029;-72
2022/04/22 16:05:41;;;;;;;18.60;11.98;;;;;;;19.87;38.44;98674.56;5051389;28;20448;-75
2022/04/22 16:08:08;;;;;;;19.95;11.93;;;;;;;19.70;38.18;98678.38;5051472;28;20037;-70
2022/04/22 16:10:35;;;;;;;;;;;;;;;19.76;37.94;98674.59;5051738;28;20048;-70
2022/04/22 16:15:47;;;;;;;22.23;12.93;;;;;;;19.83;37.25;98677.03;5036235;28;20047;-72
2022/04/22 16:18:14;;;;;;;15.23;11.23;;;;;;;19.87;36.99;98669.97;5033350;28;20057;-72
2022/04/22 16:20:40;;;;;;;18.47;11.20;;;;;;;19.87;36.86;98663.75;5051394;28;20124;-72
2022/04/22 16:23:06;;;;;;;15.57;10.68;;;;;;;19.91;37.63;98664.84;5050915;28;20271;-72
2022/04/22 16:25:32;;;;;;;19.42;11.18;;;;;;;19.65;37.49;98670.25;5051112;28;20041;-72
2022/04/22 16:28:00;;;;;;;16.48;11.05;;;;;;;19.64;37.16;98665.94;5051217;28;20102;-72
2022/04/22 16:30:26;;;;;;;16.17;10.23;;;;;;;19.73;37.59;98666.22;5049983;28;20059;-71
2022/04/22 16:32:52;;;;;;;20.00;11.05;;;;;;;19.70;37.31;98664.06;5050813;28;20067;-72
2022/04/22 16:35:18;;;;;;;16.25;10.90;;;;;;;19.67;37.32;98668.09;5033020;28;20064;-72
2022/04/22 16:37:44;;;;;;;17.05;10.65;;;;;;;19.69;37.16;98665.94;5050260;28;20397;-70
2022/04/22 16:40:10;;;;;;;18.67;10.65;;;;;;;19.71;37.44;98671.88;5051273;28;20051;-72
2022/04/22 16:42:38;;;;;;;13.15;9.20;;;;;;;19.63;38.60;98669.72;5050961;28;20029;-73
2022/04/22 16:45:08;;;;;;;18.60;12.95;;;;;;;19.57;37.41;98670.78;5051506;28;20436;-72
2022/04/22 16:47:34;;;;;;;24.63;17.77;;;;;;;19.61;37.15;98666.47;5033365;28;20186;-73